Flight Track Log - Related Links

Times and Time Zones

All times are in EDT time to prevent confusion due to time zone crossing. See the N807AE flight status page for this flight to view local times or setup timezone preferences in your user account.

Time Position Orientation Groundspeed Altitude Reporting Facility
EDT Latitude Longitude Course Direction KTS MPH feet Rate Location/Type
Wed 10:02:32 AM 38.6566 -121.5432 339° North  Level FlightAware Approximate
Wed 10:03:12 AM 38.7375 -121.5831 121° Southeast 176 203 1,700  Level Oakland Center
Wed 10:07:12 AM 38.5883 -121.2631 128° Southeast 298 343 11,200 2,180 Climbing Oakland Center
Wed 10:08:12 AM 38.5322 -121.1700 128° Southeast 319 367 12,600 1,300 Climbing Oakland Center
Wed 10:09:12 AM 38.4719 -121.0717 128° Southeast 350 403 13,800 1,250 Climbing Oakland Center
Wed 10:10:12 AM 38.4053 -120.9628 128° Southeast 375 432 15,100 1,400 Climbing Oakland Center
Wed 10:11:12 AM 38.3386 -120.8544 128° Southeast 386 444 16,600 1,500 Climbing Oakland Center
Wed 10:12:12 AM 38.2694 -120.7433 133° Southeast 392 451 18,100 1,500 Climbing Oakland Center
Wed 10:13:12 AM 38.1961 -120.6431 142° Southeast 397 457 19,600 1,550 Climbing Oakland Center
Wed 10:14:12 AM 38.1083 -120.5564 144° Southeast 387 445 21,200 1,600 Climbing Oakland Center
Wed 10:15:12 AM 38.0183 -120.4725 141° Southeast 393 452 22,800 1,600 Climbing Oakland Center
Wed 10:16:12 AM 37.9303 -120.3811 144° Southeast 406 467 24,400 1,600 Climbing Oakland Center
Wed 10:17:12 AM 37.8403 -120.2975 141° Southeast 406 467 26,000 1,600 Climbing Oakland Center
Wed 10:18:12 AM 37.7500 -120.2064 142° Southeast 412 474 27,600 1,450 Climbing Oakland Center
Wed 10:19:12 AM 37.6597 -120.1183 143° Southeast 417 480 28,900 700 Climbing Oakland Center
Wed 10:20:12 AM 37.5631 -120.0250 143° Southeast 417 480 29,000 50 Climbing Oakland Center
Wed 10:21:12 AM 37.4619 -119.9294 143° Southeast 438 504 29,000  Level Oakland Center
Wed 10:22:12 AM 37.3631 -119.8342 146° Southeast 443 510 29,000  Level Oakland Center
Wed 10:23:12 AM 37.2517 -119.7394 143° Southeast 443 510 29,000  Level Oakland Center
Wed 10:24:12 AM 37.1525 -119.6447 163° South 448 516 29,000  Level Oakland Center
Wed 10:25:12 AM 37.0414 -119.6022 180° South 427 491 29,000  Level Oakland Center
Wed 10:26:12 AM 36.9247 -119.6019 182° South 417 480 29,000  Level Oakland Center
Wed 10:27:12 AM 36.8078 -119.6067 180° South 417 480 29,000  Level Oakland Center
Wed 10:28:12 AM 36.6911 -119.6061 181° South 417 480 29,000  Level Oakland Center
Wed 10:29:12 AM 36.5722 -119.6083 181° South 422 486 29,000  Level Oakland Center
Wed 10:30:12 AM 36.4511 -119.6103 180° South 422 486 29,000 -635 Level Oakland Center
Wed 10:32:21 AM 36.1953 -119.6108 181° South 455 524 27,000 -638 Descending Los Angeles Center
Wed 10:33:20 AM 36.0764 -119.6133 181° South 450 518 27,000  Level Los Angeles Center
Wed 10:34:20 AM 35.9553 -119.6156 182° South 444 511 27,000 -50 Level Los Angeles Center
Wed 10:35:21 AM 35.8319 -119.6206 181° South 444 511 26,900  Descending Los Angeles Center
Wed 10:37:21 AM 35.5900 -119.6256 183° South 438 504 27,000 33 Climbing Los Angeles Center
Wed 10:38:21 AM 35.4686 -119.6331 182° South 438 504 27,000  Level Los Angeles Center
Wed 10:39:21 AM 35.3475 -119.6381 170° South 438 504 27,000  Level Los Angeles Center
Wed 10:40:21 AM 35.2292 -119.6125 147° Southeast 438 504 27,000  Level Los Angeles Center
Wed 10:41:20 AM 35.1231 -119.5294 144° Southeast 432 497 27,000  Level Los Angeles Center
Wed 10:42:20 AM 35.0192 -119.4389 145° Southeast 437 503 27,000 -496 Level Los Angeles Center
Wed 10:43:21 AM 34.9150 -119.3511 145° Southeast 457 526 26,000 -1,339 Descending Los Angeles Center
Wed 10:44:21 AM 34.8192 -119.2689 145° Southeast 447 514 24,300 -1,462 Descending Los Angeles Center
Wed 10:45:20 AM 34.7233 -119.1869 147° Southeast 433 498 23,100 -1,250 Descending Los Angeles Center
Wed 10:46:21 AM 34.6250 -119.1100 146° Southeast 428 493 21,800 -1,400 Descending Los Angeles Center
Wed 10:47:20 AM 34.5247 -119.0283 146° Southeast 428 493 20,300 -1,850 Descending Los Angeles Center
Wed 10:48:21 AM 34.4283 -118.9494 147° Southeast 428 493 18,100 -2,380 Descending Los Angeles Center
Wed 10:49:21 AM 34.3383 -118.8783 163° South 416 479 15,500 -2,672 Descending Los Angeles Center
Wed 10:50:20 AM 34.2389 -118.8425 163° South 388 447 12,800 -1,950 Descending Los Angeles Center
Wed 10:51:21 AM 34.1478 -118.8094 162° South 361 415 11,600 -1,200 Descending Los Angeles Center
Wed 10:52:20 AM 34.0650 -118.7767 116° Southeast 335 386 10,400 -807 Descending Los Angeles Center
Wed 10:53:20 AM 34.0272 -118.6853 95° East 269 310 10,000 -450 Descending Los Angeles Center
Wed 10:54:20 AM 34.0208 -118.5897 95° East 257 296 9,500 -793 Descending Los Angeles Center
Wed 10:55:21 AM 34.0144 -118.4969 90° East 267 307 8,400 -1,100 Descending Los Angeles Center
Wed 10:56:20 AM 34.0139 -118.4117 87° East 261 300 7,300 -1,086 Descending Los Angeles Center
Wed 10:57:06 AM 34.0167 -118.3500 76° East 214 246 6,500 -1,071 Descending Southern California TRACON
Wed 10:58:12 AM 34.0333 -118.2667 76° East 226 260 5,300 -1,091 Descending Southern California TRACON

Login

Don't have an account? Register now (free) for customized features, flight alerts, and more!